Time;durP1;ratioP1;P1;durP2;ratioP2;P2;SDS_P1;SDS_P2;PMS_P1;PMS_P2;Temp;Humidity;BMP_temperature;BMP_pressure;BME280_temperature;BME280_humidity;BME280_pressure;Samples;Min_cycle;Max_cycle;Signal;HPM_P1;HPM_P2
2023/09/14 00:00:45;;;;;;;2.53;1.70;;;;;;;10.85;100.00;101957.66;4938471;29;20218;-48
2023/09/14 00:03:10;;;;;;;2.95;1.83;;;;;;;10.71;100.00;101957.97;4953789;29;20170;-46
2023/09/14 00:05:43;;;;;;;2.10;1.75;;;;;;;10.65;100.00;101959.91;4953417;29;20241;-52
2023/09/14 00:08:10;;;;;;;1.90;1.30;;;;;;;10.70;100.00;101958.88;4953384;29;20570;-49
2023/09/14 00:10:36;;;;;;;5.10;1.98;;;;;;;10.55;100.00;101961.84;4953108;28;20281;-46
2023/09/14 00:13:01;;;;;;;5.38;1.58;;;;;;;10.41;100.00;101970.19;4953871;29;20282;-48
2023/09/14 00:15:27;;;;;;;4.10;1.73;;;;;;;10.50;100.00;101969.13;4953286;29;20696;-47
2023/09/14 00:17:54;;;;;;;2.70;1.75;;;;;;;10.51;100.00;101958.34;4952108;28;20170;-52
2023/09/14 00:20:26;;;;;;;4.20;1.75;;;;;;;10.60;100.00;101964.44;4952997;28;20175;-48
2023/09/14 00:22:53;;;;;;;3.67;1.70;;;;;;;10.50;100.00;101969.13;4953050;29;20262;-50
2023/09/14 00:25:21;;;;;;;3.85;1.50;;;;;;;10.51;100.00;101970.88;4953175;29;20175;-47
2023/09/14 00:27:47;;;;;;;2.90;1.90;;;;;;;10.46;100.00;101972.75;4953046;29;20167;-46
2023/09/14 00:30:14;;;;;;;1.95;1.45;;;;;;;10.45;100.00;101970.97;4952906;28;20166;-46
2023/09/14 00:32:40;;;;;;;2.88;1.50;;;;;;;10.45;100.00;101965.63;4935612;29;20237;-46
2023/09/14 00:35:13;;;;;;;1.55;1.30;;;;;;;10.50;100.00;101970.00;4952875;29;20186;-47
2023/09/14 00:37:42;;;;;;;4.63;2.30;;;;;;;10.32;100.00;101975.72;4953128;29;20516;-50
2023/09/14 00:40:10;;;;;;;3.10;1.73;;;;;;;10.29;100.00;101979.31;4935637;29;20174;-46
2023/09/14 00:42:46;;;;;;;3.58;1.60;;;;;;;10.30;100.00;101985.56;4935392;29;20220;-47
2023/09/14 00:45:14;;;;;;;2.53;1.55;;;;;;;10.23;100.00;101975.81;4935626;29;20167;-46
2023/09/14 00:47:50;;;;;;;3.95;1.75;;;;;;;10.24;100.00;101981.16;4952714;29;20642;-48
2023/09/14 00:50:17;;;;;;;3.53;1.90;;;;;;;10.23;100.00;101987.44;4952446;28;20166;-47
2023/09/14 00:52:46;;;;;;;4.07;2.08;;;;;;;10.26;100.00;101976.66;4952730;29;20186;-46
2023/09/14 00:55:17;;;;;;;3.15;1.80;;;;;;;10.27;100.00;101985.59;4966854;28;20653;-49
2023/09/14 00:57:43;;;;;;;3.45;1.80;;;;;;;10.16;100.00;102001.84;4965935;28;20201;-46
2023/09/14 01:00:12;;;;;;;3.22;1.90;;;;;;;10.20;100.00;101986.63;4954175;28;20273;-47
2023/09/14 01:02:41;;;;;;;5.88;1.83;;;;;;;10.16;100.00;101991.13;4971597;28;20170;-50
2023/09/14 01:05:07;;;;;;;3.85;1.40;;;;;;;10.23;100.00;101984.78;4971451;28;20182;-47
2023/09/14 01:07:34;;;;;;;4.97;1.85;;;;;;;10.22;100.00;101996.38;4972101;28;20587;-46
2023/09/14 01:10:00;;;;;;;3.03;1.63;;;;;;;10.17;100.00;101987.56;4954030;28;20170;-47
2023/09/14 01:12:27;;;;;;;3.42;1.67;;;;;;;9.97;100.00;101995.94;4971372;28;20202;-46
2023/09/14 01:15:15;;;;;;;3.97;2.00;;;;;;;10.13;100.00;102001.91;4971737;28;20176;-46
2023/09/14 01:18:11;;;;;;;3.22;1.90;;;;;;;10.07;100.00;102008.25;4971454;28;20169;-47
2023/09/14 01:21:04;;;;;;;2.67;1.75;;;;;;;10.09;100.00;101997.50;4953857;28;20206;-45
2023/09/14 01:23:30;;;;;;;4.47;2.10;;;;;;;10.11;100.00;102001.06;4969695;28;20170;-47
2023/09/14 01:25:58;;;;;;;5.65;1.90;;;;;;;10.07;100.00;102004.69;4969977;28;20618;-48
2023/09/14 01:28:24;;;;;;;4.78;2.28;;;;;;;10.03;100.00;102008.31;4952073;28;20181;-45
2023/09/14 01:30:50;;;;;;;3.67;1.95;;;;;;;10.03;100.00;102005.66;4953504;28;20306;-47
2023/09/14 01:33:17;;;;;;;3.90;1.60;;;;;;;10.01;100.00;102007.47;4970878;28;20650;-43
2023/09/14 01:35:56;;;;;;;2.85;1.50;;;;;;;10.03;100.00;102001.16;4970946;28;20214;-45
2023/09/14 01:38:23;;;;;;;5.45;2.20;;;;;;;10.01;100.00;101996.75;4969721;28;20193;-44
2023/09/14 01:40:51;;;;;;;3.85;1.98;;;;;;;9.90;100.00;102000.50;4953602;28;20206;-46
2023/09/14 01:43:18;;;;;;;6.57;2.28;;;;;;;9.94;100.00;102001.31;4971020;28;20176;-48
2023/09/14 01:45:45;;;;;;;5.85;2.38;;;;;;;9.99;100.00;102003.94;4953540;28;20236;-46
2023/09/14 01:48:15;;;;;;;3.83;2.08;;;;;;;9.94;100.00;101997.78;4969476;28;20202;-44
2023/09/14 01:50:41;;;;;;;3.00;1.92;;;;;;;9.90;100.00;102002.28;4953365;28;20216;-43
2023/09/14 01:53:07;;;;;;;2.90;1.88;;;;;;;9.91;100.00;102001.41;4953504;28;20634;-43
2023/09/14 01:55:32;;;;;;;5.07;2.25;;;;;;;9.80;100.00;101998.88;4970630;28;20214;-45
2023/09/14 01:57:58;;;;;;;3.47;2.20;;;;;;;9.84;100.00;102000.63;4968850;28;20200;-49
2023/09/14 02:00:26;;;;;;;4.32;2.13;;;;;;;9.77;100.00;101998.03;4953421;28;20664;-44
2023/09/14 02:02:52;;;;;;;5.28;2.30;;;;;;;9.71;100.00;101999.03;4970892;28;20172;-45
2023/09/14 02:05:18;;;;;;;2.25;1.70;;;;;;;9.87;100.00;102005.03;4970593;28;20185;-45
2023/09/14 02:07:45;;;;;;;2.55;1.70;;;;;;;9.72;100.00;102006.16;4970619;28;20174;-49
2023/09/14 02:10:11;;;;;;;2.15;1.95;;;;;;;9.83;100.00;101995.28;4953058;28;20184;-50
2023/09/14 02:12:36;;;;;;;7.93;2.33;;;;;;;9.86;100.00;101997.88;4970624;28;20676;-44
2023/09/14 02:15:02;;;;;;;3.47;2.05;;;;;;;9.77;100.00;102001.59;4971052;28;20193;-47
2023/09/14 02:17:30;;;;;;;4.70;2.20;;;;;;;9.78;100.00;102000.72;4969067;28;20180;-44
2023/09/14 02:19:56;;;;;;;3.47;1.90;;;;;;;9.66;100.00;102012.50;4970410;28;20193;-46
2023/09/14 02:22:22;;;;;;;5.47;2.03;;;;;;;9.77;100.00;102008.75;4970566;28;20224;-49
2023/09/14 02:24:48;;;;;;;5.55;2.13;;;;;;;9.72;100.00;102014.19;4969008;28;20185;-44
2023/09/14 02:27:13;;;;;;;4.72;2.17;;;;;;;9.68;100.00;102013.31;4970511;28;20615;-46
2023/09/14 02:29:39;;;;;;;2.80;1.90;;;;;;;9.60;100.00;102025.97;4970498;28;20818;-47
2023/09/14 02:32:07;;;;;;;4.65;2.03;;;;;;;9.68;100.00;102021.34;4969994;28;20218;-46
2023/09/14 02:34:33;;;;;;;3.45;1.95;;;;;;;9.72;100.00;102011.50;4952964;28;20177;-50
2023/09/14 02:36:58;;;;;;;2.33;1.90;;;;;;;9.64;100.00;102018.75;4970200;28;20181;-45
2023/09/14 02:39:24;;;;;;;2.45;1.65;;;;;;;9.61;100.00;102014.34;4952980;28;20276;-49
2023/09/14 02:41:49;;;;;;;3.15;2.28;;;;;;;9.62;100.00;102015.22;4969554;28;20198;-48
2023/09/14 02:44:15;;;;;;;4.28;2.00;;;;;;;9.49;100.00;102014.53;4970141;28;20174;-47
2023/09/14 02:46:40;;;;;;;2.40;1.70;;;;;;;9.68;100.00;102015.13;4969963;28;20192;-46
2023/09/14 02:49:06;;;;;;;1.77;1.60;;;;;;;9.59;100.00;102015.28;4952521;28;20276;-49
2023/09/14 02:51:31;;;;;;;2.63;1.83;;;;;;;9.53;100.00;102013.56;4952463;28;20256;-47
2023/09/14 02:53:57;;;;;;;2.53;1.60;;;;;;;9.62;100.00;102010.78;4969821;28;20535;-45
2023/09/14 02:56:22;;;;;;;2.97;1.77;;;;;;;9.54;100.00;102015.34;4952583;28;20525;-52
2023/09/14 02:58:51;;;;;;;4.45;2.17;;;;;;;9.54;100.00;102019.81;4952438;28;20677;-46
2023/09/14 03:01:16;;;;;;;2.95;1.95;;;;;;;9.54;100.00;102020.69;4951812;28;20197;-46
2023/09/14 03:03:42;;;;;;;2.78;1.60;;;;;;;9.56;100.00;102012.66;4968732;28;20170;-45
2023/09/14 03:06:08;;;;;;;2.67;1.52;;;;;;;9.55;100.00;102025.13;4952567;28;20202;-47
2023/09/14 03:08:34;;;;;;;5.20;2.10;;;;;;;9.45;100.00;102015.50;4952432;28;20172;-47
2023/09/14 03:11:00;;;;;;;3.08;1.70;;;;;;;9.42;100.00;102018.19;4952817;28;20198;-47
2023/09/14 03:13:27;;;;;;;3.55;1.90;;;;;;;9.37;100.00;102028.97;4968529;28;20672;-46
2023/09/14 03:15:57;;;;;;;2.45;1.83;;;;;;;9.46;100.00;102033.28;4952250;28;20177;-47
2023/09/14 03:18:24;;;;;;;3.05;1.70;;;;;;;9.40;100.00;102020.91;4952407;28;20241;-45
2023/09/14 03:20:55;;;;;;;3.08;1.60;;;;;;;9.41;100.00;102028.00;4970002;28;20264;-45
2023/09/14 03:23:21;;;;;;;2.20;1.80;;;;;;;9.34;100.00;102023.66;4969744;28;20190;-50
2023/09/14 03:25:48;;;;;;;3.30;1.90;;;;;;;9.37;100.00;102014.72;4942171;29;20177;-50
2023/09/14 03:28:16;;;;;;;1.80;1.60;;;;;;;9.30;100.00;102024.63;4932538;29;20197;-49
2023/09/14 03:30:42;;;;;;;2.72;1.98;;;;;;;9.31;100.00;102029.03;4950743;28;20244;-47
2023/09/14 03:33:08;;;;;;;2.60;2.08;;;;;;;9.30;100.00;102031.75;4932960;29;20206;-49
2023/09/14 03:35:34;;;;;;;1.85;1.67;;;;;;;9.32;100.00;102029.94;4950457;29;20163;-48
2023/09/14 03:38:06;;;;;;;4.28;2.13;;;;;;;9.28;100.00;102027.28;4949630;29;20282;-49
2023/09/14 03:40:32;;;;;;;2.15;1.90;;;;;;;9.28;100.00;102029.09;4933215;28;20286;-46
2023/09/14 03:42:58;;;;;;;3.00;2.40;;;;;;;9.26;100.00;102029.09;4952159;28;20591;-47
2023/09/14 03:45:24;;;;;;;1.98;1.60;;;;;;;9.26;100.00;102026.44;4969643;28;20241;-45
2023/09/14 03:47:51;;;;;;;2.47;1.88;;;;;;;9.28;100.00;102031.78;4969552;28;20170;-45
2023/09/14 03:50:17;;;;;;;2.58;2.17;;;;;;;9.27;100.00;102025.53;4969463;28;20209;-49
2023/09/14 03:52:42;;;;;;;2.42;2.15;;;;;;;9.24;100.00;102032.72;4954062;28;20233;-46
2023/09/14 03:55:08;;;;;;;2.05;1.77;;;;;;;9.22;100.00;102037.19;4973397;28;20188;-46
2023/09/14 03:57:34;;;;;;;3.92;1.98;;;;;;;9.18;100.00;102027.44;4955397;28;20174;-46
2023/09/14 04:00:01;;;;;;;2.55;1.95;;;;;;;9.11;100.00;102025.75;4955375;28;20178;-45
2023/09/14 04:02:28;;;;;;;1.85;1.73;;;;;;;9.20;100.00;102022.97;4955459;28;20229;-46
2023/09/14 04:04:53;;;;;;;2.05;1.85;;;;;;;9.21;100.00;102025.63;4972787;28;20253;-46
2023/09/14 04:07:19;;;;;;;1.85;1.70;;;;;;;9.19;100.00;102031.91;4971465;28;20200;-45
2023/09/14 04:09:45;;;;;;;3.35;1.63;;;;;;;9.18;100.00;102031.03;4945788;29;20198;-46
2023/09/14 04:12:11;;;;;;;2.65;1.80;;;;;;;9.11;100.00;102037.31;4941131;28;20252;-45
2023/09/14 04:14:37;;;;;;;4.20;2.20;;;;;;;9.09;100.00;102036.47;4971173;28;20273;-45
2023/09/14 04:17:03;;;;;;;2.47;1.70;;;;;;;9.13;100.00;102043.53;4955219;28;20501;-48
2023/09/14 04:19:29;;;;;;;3.13;2.08;;;;;;;9.05;100.00;102043.66;4955327;28;20675;-48
2023/09/14 04:21:56;;;;;;;3.28;1.85;;;;;;;9.10;100.00;102050.75;4972480;28;20716;-49
2023/09/14 04:24:22;;;;;;;2.17;1.98;;;;;;;9.15;100.00;102051.56;4958331;28;20258;-46
2023/09/14 04:26:48;;;;;;;3.65;2.08;;;;;;;9.01;100.00;102055.28;4953141;29;20174;-48
2023/09/14 04:29:13;;;;;;;3.85;1.88;;;;;;;9.11;100.00;102066.75;4935605;29;20178;-47
2023/09/14 04:31:43;;;;;;;3.47;1.80;;;;;;;9.13;100.00;102067.59;4951572;28;20202;-50
2023/09/14 04:34:11;;;;;;;2.42;1.85;;;;;;;9.16;100.00;102074.69;4952769;29;20167;-46
2023/09/14 04:36:39;;;;;;;2.47;2.10;;;;;;;9.03;100.00;102071.28;4935444;29;20183;-45
2023/09/14 04:39:05;;;;;;;3.28;1.80;;;;;;;9.04;100.00;102073.94;4935134;29;20183;-47
2023/09/14 04:41:31;;;;;;;5.97;2.47;;;;;;;8.97;100.00;102068.72;4935073;29;20656;-47
2023/09/14 04:43:57;;;;;;;3.38;2.08;;;;;;;9.02;100.00;102072.19;4952668;29;20171;-47
2023/09/14 04:46:22;;;;;;;3.75;2.30;;;;;;;9.02;100.00;102075.75;4935190;29;20179;-49
2023/09/14 04:48:49;;;;;;;3.95;2.33;;;;;;;9.04;100.00;102075.75;4952584;28;20677;-46
2023/09/14 04:51:15;;;;;;;2.85;2.50;;;;;;;8.87;100.00;102068.78;4958445;28;20206;-45
2023/09/14 04:53:41;;;;;;;3.63;2.97;;;;;;;8.93;100.00;102077.66;4937226;28;20218;-45
2023/09/14 04:56:07;;;;;;;4.43;2.47;;;;;;;8.90;100.00;102085.69;4970151;28;20170;-46
2023/09/14 04:58:34;;;;;;;4.15;2.25;;;;;;;8.99;100.00;102081.16;4954046;28;20655;-46
2023/09/14 05:01:00;;;;;;;3.85;2.38;;;;;;;8.93;100.00;102075.88;4969998;28;20190;-49
2023/09/14 05:03:26;;;;;;;2.80;2.60;;;;;;;8.93;100.00;102086.56;4953609;28;20180;-51
2023/09/14 05:05:54;;;;;;;5.30;2.13;;;;;;;8.92;100.00;102083.91;4954000;28;20637;-50
2023/09/14 05:08:21;;;;;;;2.17;2.08;;;;;;;8.88;100.00;102083.06;4953681;28;20182;-45
2023/09/14 05:10:52;;;;;;;4.40;2.80;;;;;;;8.93;100.00;102083.00;4953752;28;20205;-45
2023/09/14 05:13:20;;;;;;;2.97;2.33;;;;;;;8.95;100.00;102079.41;4938041;28;20209;-48
2023/09/14 05:15:47;;;;;;;4.70;2.33;;;;;;;8.90;100.00;102081.25;4953458;28;20178;-44
2023/09/14 05:18:13;;;;;;;1.95;1.70;;;;;;;9.01;100.00;102084.69;4952958;28;20182;-51
2023/09/14 05:20:43;;;;;;;5.32;2.15;;;;;;;9.04;100.00;102092.66;4952887;28;20300;-44
2023/09/14 05:23:09;;;;;;;4.88;2.13;;;;;;;9.16;100.00;102094.31;4970232;28;20170;-45
2023/09/14 05:25:34;;;;;;;2.40;2.00;;;;;;;9.24;100.00;102092.41;4952902;28;20188;-46
2023/09/14 05:28:00;;;;;;;3.08;2.13;;;;;;;9.21;100.00;102094.28;4970170;28;20194;-47
2023/09/14 05:30:26;;;;;;;3.78;2.17;;;;;;;9.05;100.00;102080.19;4952975;28;20188;-50
2023/09/14 05:32:52;;;;;;;2.08;1.88;;;;;;;9.21;100.00;102094.28;4952886;28;20669;-50
2023/09/14 05:35:18;;;;;;;4.07;2.22;;;;;;;9.12;100.00;102091.69;4952951;28;20202;-47
2023/09/14 05:37:45;;;;;;;3.95;2.17;;;;;;;9.18;100.00;102097.88;4953150;28;20644;-45
2023/09/14 05:40:12;;;;;;;2.15;1.90;;;;;;;9.24;100.00;102095.09;4970588;28;20178;-46
2023/09/14 05:42:41;;;;;;;5.38;2.08;;;;;;;9.28;100.00;102106.66;4953624;28;20515;-45
2023/09/14 05:45:09;;;;;;;4.05;1.75;;;;;;;9.22;100.00;102104.03;4953676;28;20641;-49
2023/09/14 05:47:36;;;;;;;2.67;1.88;;;;;;;9.42;100.00;102095.75;4953490;28;20232;-45
2023/09/14 05:50:03;;;;;;;4.90;1.90;;;;;;;9.84;100.00;102102.31;4953637;28;20269;-45
2023/09/14 05:52:30;;;;;;;2.40;1.65;;;;;;;9.97;100.00;102108.38;4953094;28;20293;-47
2023/09/14 05:54:56;;;;;;;2.97;1.95;;;;;;;10.05;100.00;102113.63;4971245;23;20281;-46
2023/09/14 05:57:22;;;;;;;2.17;1.98;;;;;;;10.03;100.00;102100.22;4976670;28;20178;-43
2023/09/14 05:59:48;;;;;;;2.80;1.90;;;;;;;10.28;100.00;102119.50;4971723;28;20628;-41
2023/09/14 06:02:14;;;;;;;2.92;1.88;;;;;;;10.87;100.00;102116.72;4975670;28;20194;-40
2023/09/14 06:04:40;;;;;;;2.47;1.73;;;;;;;11.41;100.00;102123.66;4975338;28;20670;-45
2023/09/14 06:07:05;;;;;;;5.07;2.40;;;;;;;11.77;100.00;102122.94;4986200;28;20179;-43
2023/09/14 06:09:31;;;;;;;2.40;1.73;;;;;;;12.35;100.00;102119.78;4987311;28;20174;-43
2023/09/14 06:11:57;;;;;;;3.88;2.35;;;;;;;12.64;100.00;102118.16;4974543;28;20576;-43
2023/09/14 06:14:23;;;;;;;2.67;1.70;;;;;;;12.96;100.00;102119.94;4992080;28;20185;-44
2023/09/14 06:16:49;;;;;;;5.65;1.90;;;;;;;13.15;100.00;102123.03;4970706;28;20818;-42
2023/09/14 06:19:14;;;;;;;2.78;1.67;;;;;;;13.47;100.00;102110.50;4975298;28;20276;-43
2023/09/14 06:21:40;;;;;;;2.55;1.63;;;;;;;13.84;100.00;102120.16;4971731;28;20202;-42
2023/09/14 06:24:06;;;;;;;5.70;4.72;;;;;;;14.01;100.00;102114.19;4970678;28;20552;-41
2023/09/14 06:26:31;;;;;;;3.00;2.03;;;;;;;14.11;100.00;102099.50;4970751;28;20260;-42
2023/09/14 06:28:57;;;;;;;3.60;1.60;;;;;;;13.98;100.00;102095.44;4970334;28;20186;-42
2023/09/14 06:31:23;;;;;;;4.25;1.77;;;;;;;14.47;99.98;102098.31;4968945;28;20678;-42
2023/09/14 06:33:49;;;;;;;3.83;1.50;;;;;;;14.83;97.01;102080.00;4971201;28;20209;-43
2023/09/14 06:36:18;;;;;;;1.60;1.48;;;;;;;15.17;94.05;102067.94;4971366;28;20531;-42
2023/09/14 06:38:44;;;;;;;3.10;1.40;;;;;;;14.67;91.25;102067.97;4974224;28;20797;-41
2023/09/14 06:41:10;;;;;;;5.75;1.40;;;;;;;14.27;89.70;102054.03;4970872;28;20193;-44
2023/09/14 06:43:35;;;;;;;4.40;1.52;;;;;;;14.19;90.45;102057.00;4971232;28;20181;-41
2023/09/14 06:46:01;;;;;;;1.42;1.30;;;;;;;14.21;91.07;102062.34;4974497;28;20181;-41
2023/09/14 06:48:26;;;;;;;4.00;1.63;;;;;;;14.14;91.48;102068.88;4985560;28;20220;-42
2023/09/14 06:50:52;;;;;;;2.30;1.25;;;;;;;13.94;90.85;102074.91;4971376;28;20264;-42
2023/09/14 06:53:17;;;;;;;2.67;1.60;;;;;;;13.77;90.46;102080.84;4971027;28;20202;-41
2023/09/14 06:55:43;;;;;;;6.70;1.83;;;;;;;13.74;91.22;102089.03;4990554;28;20181;-43
2023/09/14 06:58:09;;;;;;;2.83;1.80;;;;;;;13.95;91.73;102099.13;4989334;28;20189;-43
2023/09/14 07:00:35;;;;;;;2.95;1.40;;;;;;;14.13;90.86;102103.03;4993565;28;20201;-42
2023/09/14 07:03:02;;;;;;;4.50;1.55;;;;;;;14.59;89.85;102087.16;4991259;28;20179;-43
2023/09/14 07:05:29;;;;;;;4.45;2.80;;;;;;;14.91;88.11;102090.50;4991603;28;20181;-43
2023/09/14 07:07:55;;;;;;;5.07;2.40;;;;;;;15.31;85.99;102080.94;4988169;28;20276;-40
2023/09/14 07:10:24;;;;;;;4.72;2.50;;;;;;;15.54;84.58;102078.22;4993473;28;20261;-41
2023/09/14 07:12:50;;;;;;;6.78;1.98;;;;;;;14.93;82.99;102075.16;4991991;28;20328;-41
2023/09/14 07:15:15;;;;;;;4.88;1.70;;;;;;;14.98;82.27;102070.47;4989068;28;20216;-40
2023/09/14 07:17:41;;;;;;;4.82;1.92;;;;;;;15.38;82.07;102080.66;4992810;28;20177;-43
2023/09/14 07:20:07;;;;;;;5.75;1.60;;;;;;;15.81;80.58;102065.50;4992707;28;20185;-41
2023/09/14 07:22:33;;;;;;;5.38;1.70;;;;;;;16.00;79.36;102057.47;4989121;28;20577;-41
2023/09/14 07:24:59;;;;;;;5.05;1.77;;;;;;;15.90;78.23;102048.03;4990886;28;20193;-41
2023/09/14 07:27:24;;;;;;;5.35;1.88;;;;;;;15.91;77.54;102052.47;4990630;28;20801;-41
2023/09/14 07:29:53;;;;;;;2.75;1.60;;;;;;;16.42;76.26;102056.66;4991391;28;20682;-41
2023/09/14 07:32:19;;;;;;;6.38;1.77;;;;;;;16.76;74.47;102040.75;4994213;28;20201;-39
2023/09/14 07:34:44;;;;;;;4.65;1.85;;;;;;;16.80;74.19;102047.81;4994271;28;20235;-39
2023/09/14 07:37:10;;;;;;;2.80;1.63;;;;;;;16.96;74.42;102050.69;4993165;28;20262;-41
2023/09/14 07:39:35;;;;;;;6.10;1.70;;;;;;;17.09;72.75;102031.09;4992175;28;20170;-41
2023/09/14 07:42:01;;;;;;;4.20;1.60;;;;;;;17.20;70.11;102024.31;4988995;28;20207;-41
2023/09/14 07:44:26;;;;;;;4.15;1.70;;;;;;;17.29;69.92;102019.34;4993676;28;20600;-42
2023/09/14 07:46:52;;;;;;;1.75;0.93;;;;;;;16.69;69.79;102018.50;4990944;28;20188;-41
2023/09/14 07:49:17;;;;;;;5.90;1.15;;;;;;;17.38;68.89;102009.91;4977214;28;20270;-41
2023/09/14 07:51:43;;;;;;;3.03;1.13;;;;;;;17.54;68.73;102003.75;4991684;28;20197;-41
2023/09/14 07:54:08;;;;;;;2.53;1.05;;;;;;;17.60;68.28;102006.13;4995143;28;21115;-41
2023/09/14 07:56:34;;;;;;;3.25;0.93;;;;;;;17.18;67.91;102018.97;4991791;28;20183;-41
2023/09/14 07:58:59;;;;;;;6.28;1.45;;;;;;;17.47;67.88;102013.97;4992778;28;20473;-42
2023/09/14 08:01:25;;;;;;;3.28;1.00;;;;;;;17.10;67.94;102029.28;4993537;28;20201;-41
2023/09/14 08:03:50;;;;;;;3.92;1.13;;;;;;;16.95;67.87;102019.19;4995387;28;20256;-40
2023/09/14 08:06:18;;;;;;;3.92;1.08;;;;;;;17.26;66.42;102011.34;4992628;28;20180;-41
2023/09/14 08:08:45;;;;;;;5.50;1.17;;;;;;;17.43;65.94;102015.09;4993213;28;20248;-42
2023/09/14 08:11:11;;;;;;;4.85;1.20;;;;;;;17.36;65.31;101994.66;4991404;28;20208;-40
2023/09/14 08:13:37;;;;;;;4.10;1.30;;;;;;;17.70;64.56;101996.59;4993585;28;20207;-42
2023/09/14 08:16:04;;;;;;;2.78;0.77;;;;;;;18.00;62.91;101980.69;4995059;28;20184;-42
2023/09/14 08:18:29;;;;;;;3.67;0.98;;;;;;;18.41;61.23;101963.19;4999132;28;20180;-39
2023/09/14 08:20:55;;;;;;;3.00;0.90;;;;;;;17.61;61.54;101951.88;4991216;28;20196;-41
2023/09/14 08:23:20;;;;;;;5.35;0.98;;;;;;;17.37;61.59;101972.06;4992439;28;20594;-42
2023/09/14 08:25:47;;;;;;;2.25;0.70;;;;;;;17.14;61.49;101965.00;4994372;28;20189;-41
2023/09/14 08:28:17;;;;;;;4.72;1.10;;;;;;;17.11;61.79;101974.16;4994792;28;20197;-40
2023/09/14 08:30:44;;;;;;;4.18;0.80;;;;;;;17.34;62.09;101985.72;4992900;28;20197;-41
2023/09/14 08:33:12;;;;;;;2.88;0.90;;;;;;;17.16;61.21;101972.09;4993682;28;20677;-42
2023/09/14 08:35:38;;;;;;;3.08;1.13;;;;;;;17.91;61.18;101970.31;4991874;28;20602;-42
2023/09/14 08:38:08;;;;;;;5.63;0.93;;;;;;;17.96;59.44;101940.25;4990892;28;20284;-41
2023/09/14 08:40:34;;;;;;;2.97;0.90;;;;;;;17.47;60.82;101976.94;4991604;28;20216;-41
2023/09/14 08:43:01;;;;;;;5.40;0.93;;;;;;;17.86;61.36;101975.97;4995250;28;20584;-41
2023/09/14 08:45:29;;;;;;;2.83;0.85;;;;;;;18.08;60.35;101977.56;4992874;28;20177;-41
2023/09/14 08:47:56;;;;;;;5.93;1.30;;;;;;;18.69;59.93;101965.28;4992908;28;20184;-43
2023/09/14 08:50:26;;;;;;;2.55;0.90;;;;;;;17.89;58.30;101955.94;4995061;28;20266;-44
2023/09/14 08:52:53;;;;;;;2.42;0.93;;;;;;;17.32;59.72;101960.53;4994522;28;20216;-42
2023/09/14 08:55:22;;;;;;;2.60;0.70;;;;;;;17.61;60.56;101973.56;4994248;28;20189;-46
2023/09/14 08:57:48;;;;;;;1.77;0.88;;;;;;;17.93;59.57;101968.41;4993264;28;20177;-43
2023/09/14 09:00:15;;;;;;;5.97;1.02;;;;;;;18.27;60.22;101985.63;4995367;28;20185;-43
2023/09/14 09:02:45;;;;;;;2.17;0.68;;;;;;;17.82;58.76;101966.22;4990465;28;20232;-45
2023/09/14 09:05:13;;;;;;;2.17;0.85;;;;;;;18.06;59.11;101979.47;4992014;28;20181;-43
2023/09/14 09:07:43;;;;;;;2.38;1.00;;;;;;;18.48;58.46;101973.66;4994623;28;20638;-46
2023/09/14 09:10:18;;;;;;;4.50;0.90;;;;;;;18.33;58.44;101960.88;4993450;28;20741;-44
2023/09/14 09:12:45;;;;;;;3.53;0.70;;;;;;;17.73;59.18;101968.47;4989316;28;20197;-44
2023/09/14 09:15:12;;;;;;;6.32;0.88;;;;;;;17.52;58.72;101963.16;4995283;28;20177;-45
2023/09/14 09:17:39;;;;;;;3.35;0.88;;;;;;;17.17;59.83;101987.44;4987388;28;20193;-46
2023/09/14 09:20:24;;;;;;;4.03;0.90;;;;;;;16.98;60.17;101991.94;4989914;28;20181;-44
2023/09/14 09:22:51;;;;;;;5.70;1.10;;;;;;;17.55;60.21;102002.78;4995376;28;20185;-42
2023/09/14 09:25:17;;;;;;;3.13;0.90;;;;;;;18.65;58.18;101980.00;4992285;28;20585;-45
2023/09/14 09:27:43;;;;;;;3.88;0.70;;;;;;;18.49;57.23;101956.38;4995690;28;20533;-45
2023/09/14 09:30:10;;;;;;;4.18;1.05;;;;;;;18.30;57.95;101977.31;4992831;28;20176;-44
2023/09/14 09:32:42;;;;;;;2.20;0.82;;;;;;;18.20;57.23;101959.78;4975899;28;20201;-46
2023/09/14 09:35:21;;;;;;;1.70;0.90;;;;;;;17.70;58.87;101964.09;4990420;28;20244;-45
2023/09/14 09:37:48;;;;;;;0.55;0.50;;;;;;;17.13;59.42;101985.81;4989447;28;20165;-44
2023/09/14 09:40:20;;;;;;;5.72;0.98;;;;;;;17.01;58.49;101968.31;4990899;28;20197;-43
2023/09/14 09:42:46;;;;;;;3.55;0.88;;;;;;;17.21;57.96;101967.38;4992504;28;20905;-44
2023/09/14 09:45:12;;;;;;;3.65;0.82;;;;;;;17.09;58.85;101976.06;4990351;28;20185;-43
2023/09/14 09:47:39;;;;;;;3.05;0.88;;;;;;;17.83;58.91;101983.34;4991402;28;20252;-45
2023/09/14 09:50:10;;;;;;;3.28;0.70;;;;;;;18.33;57.59;101977.16;4992464;28;20260;-45
2023/09/14 09:52:37;;;;;;;3.00;0.70;;;;;;;18.49;55.98;101950.09;4993091;28;20189;-44
2023/09/14 09:55:04;;;;;;;2.30;0.75;;;;;;;18.79;55.68;101958.44;4991512;28;20188;-44
2023/09/14 09:57:38;;;;;;;5.50;0.85;;;;;;;18.99;55.04;101945.59;4989377;28;20232;-44
2023/09/14 10:00:19;;;;;;;2.75;0.75;;;;;;;17.46;55.39;101934.53;4991274;28;20550;-46
2023/09/14 10:02:47;;;;;;;3.85;0.90;;;;;;;17.34;57.38;101974.88;4987633;28;20184;-42
2023/09/14 10:05:13;;;;;;;6.90;1.08;;;;;;;17.43;57.51;101990.72;4989464;28;20203;-45
2023/09/14 10:07:40;;;;;;;3.58;0.93;;;;;;;17.74;57.88;101984.66;4992138;28;20177;-42
2023/09/14 10:10:10;;;;;;;3.90;0.93;;;;;;;17.22;56.95;101977.25;4989060;28;20177;-42
2023/09/14 10:12:38;;;;;;;3.70;0.85;;;;;;;17.76;58.57;101990.88;4990199;28;20790;-42
2023/09/14 10:15:08;;;;;;;4.68;0.93;;;;;;;17.47;57.91;101997.72;4994966;28;20588;-44
2023/09/14 10:17:35;;;;;;;1.58;0.80;;;;;;;17.09;57.37;101976.94;4993283;28;20177;-44
2023/09/14 10:20:08;;;;;;;2.88;0.90;;;;;;;17.02;57.69;101988.16;4981383;28;20228;-45
2023/09/14 10:22:36;;;;;;;2.42;0.82;;;;;;;16.62;57.67;101984.53;4997183;28;20231;-44
2023/09/14 10:25:04;;;;;;;7.82;1.00;;;;;;;17.02;58.74;102002.56;4993211;28;20541;-44
2023/09/14 10:27:30;;;;;;;7.53;1.10;;;;;;;17.73;58.21;101996.44;4989155;28;20186;-45
2023/09/14 10:29:57;;;;;;;6.22;1.00;;;;;;;17.51;57.93;101991.19;4995725;28;20176;-44
2023/09/14 10:32:29;;;;;;;5.25;0.90;;;;;;;17.34;58.21;101989.34;4994456;28;20607;-43
2023/09/14 10:34:59;;;;;;;4.18;1.05;;;;;;;17.34;59.00;102004.69;4989758;28;20197;-44
2023/09/14 10:37:25;;;;;;;3.85;0.90;;;;;;;17.69;58.61;102008.41;4992040;28;20173;-45
2023/09/14 10:39:53;;;;;;;4.05;0.90;;;;;;;17.40;58.50;101999.84;4992937;28;20180;-43
2023/09/14 10:42:18;;;;;;;3.75;0.70;;;;;;;17.00;58.23;101987.34;4988168;28;20679;-45
2023/09/14 10:44:44;;;;;;;1.85;0.65;;;;;;;17.27;58.16;101980.63;4982212;28;20219;-46
2023/09/14 10:47:11;;;;;;;4.78;1.30;;;;;;;17.92;57.11;101966.63;4993079;28;20262;-49
2023/09/14 10:49:41;;;;;;;4.65;1.00;;;;;;;17.30;55.77;101939.84;4996541;28;20177;-47
2023/09/14 10:52:07;;;;;;;3.08;0.90;;;;;;;17.26;56.76;101953.59;4991051;28;20652;-47
2023/09/14 10:54:35;;;;;;;6.80;1.02;;;;;;;17.18;58.59;101975.63;4995261;28;20181;-47
2023/09/14 10:57:10;;;;;;;4.40;0.90;;;;;;;17.02;59.11;101994.44;4989727;28;20193;-51
2023/09/14 10:59:53;;;;;;;4.68;0.95;;;;;;;17.24;58.54;101977.19;4993847;28;20711;-46
2023/09/14 11:02:37;;;;;;;3.92;0.75;;;;;;;17.64;58.19;101959.84;4997597;28;20209;-46
2023/09/14 11:05:17;;;;;;;2.97;0.70;;;;;;;18.20;58.63;101974.22;4998028;28;20201;-49
2023/09/14 11:07:44;;;;;;;3.88;1.00;;;;;;;18.82;56.83;101958.25;4997965;28;20180;-46
2023/09/14 11:10:16;;;;;;;5.35;1.00;;;;;;;18.71;55.72;101938.94;4998879;28;20247;-45
2023/09/14 11:12:43;;;;;;;4.13;0.90;;;;;;;18.16;55.83;101936.47;4974417;28;20749;-45
2023/09/14 11:15:16;;;;;;;4.80;0.98;;;;;;;18.00;56.79;101942.72;4993647;28;20181;-45
2023/09/14 11:17:46;;;;;;;2.42;0.73;;;;;;;18.59;56.14;101948.66;4993752;28;20201;-42
2023/09/14 11:20:24;;;;;;;2.00;0.80;;;;;;;18.92;56.00;101945.94;4997094;28;20633;-44
2023/09/14 11:22:52;;;;;;;6.22;1.08;;;;;;;18.11;55.63;101934.00;4992130;28;20292;-42
2023/09/14 11:25:29;;;;;;;3.20;1.00;;;;;;;19.03;54.86;101939.03;4990843;28;20209;-44